KLIT

Bill and Hillary Clinton National / Adams Field Airport

Little Rock, Arkansas, USA
METAR KLIT 230953Z 07005KT 2SM -TSRA BR BKN003 BKN024CB OVC050 09/09 A3019 RMK AO2 LTG DSNT NE RAE14B22 TSB14 SLP226 VIS 1V5 OCNL LTGIC SW-NW TS SW-NW MOV NE P0027 T00890089 $
Observed Flight Rules
Feb-23 @ 09:53 UTC (39 minutes ago) Instrument Flight Rules
Wind Visibility Clouds Conditions
70° at 5 knots 2 miles
  • Broken at 300' AGL
  • Broken at 2,400' AGL
  • Overcast at 5,000' AGL
  • Light Thunderstorm
  • Light Rain
  • Mist
Temperatures Readings Precipitation
Current 9°C / 48°F
Dewpoint 9°C / 48°F
Humidity 100%
Altimeter 30.19" Hg
Pressure 1022.6 hPa
Elevation 79
Current Rain 0.27
METAR KLIT 230953Z 07005KT 2SM -TSRA BR BKN003 BKN024CB OVC050 09/09 A3019 RMK AO2 LTG DSNT NE RAE14B22 TSB14 SLP226 VIS 1V5 OCNL LTGIC SW-NW TS SW-NW MOV NE P0027 T00890089 $
Observed Flight Rules
Feb-23 @ 09:53 UTC
(39 minutes ago)
LIFR
Wind Visibility
70° at 5 knots 2 miles
Clouds
  • Broken at 300' AGL
  • Broken at 2,400' AGL
  • Overcast at 5,000' AGL
Conditions
  • Light Thunderstorm
  • Light Rain
  • Mist
Temperature Dewpoint
9°C / 48°F 9°C / 48°F
Humidity Altimeter Pressure
100% 30.19" Hg 1022.6 hPa
Current Rain
0.27